aviador You're here:

KPAE Decoded Metar

EVERETT in WA, USA
Report Time2018-06-17 20:53:00
UTC Time2018-06-17 21:39:35
Flight Rules vfr VFR
Wind330° at 08 kt
W.Decomp.*RWY 29: 7.4 kt HW 3.1 kt RCW
RWY 34: 7.1 kt HW 3.6 kt LCW
W.Rank330° ranks 14
Current wind is above 330° avg. (5.3)
Visibility9999 m
Phenomena:N/A
Clouds:N/A
Expected CloudBase > 5,200 ft AGL from Temp-Dew spread
CeilingNone
Temp24°C (ISA +10)
Dew Point11°C (44% RH)
AAT21.4°C
QNH1013 hPa
Density Alt1,949 ft
Elevation591 ft
Report Wrong Elevation
Raw Report
KPAE 172053Z 33008KT 300V010 10SM CLR 24/11 A2991 RMK AO2 SLP126
T02390111 58017=

Extra information for KPAE:More info

Metar Taf Metar & Taf Last 4 Metars F.Rules Stats Wind Profile Meteogram Temp Stats Airport Information Weather charts Add Link Nearby VenuesMetar ALERT Operation Metar Decoded Social comments

AIRNAV info for KPAE